createdAt,value
2023-03-28T00:01:02.663Z,12.45
2023-03-28T00:03:29.826Z,11.77
2023-03-28T00:06:02.805Z,12.07
2023-03-28T00:08:30.678Z,12.13
2023-03-28T00:11:20.756Z,12.70
2023-03-28T00:13:58.316Z,11.90
2023-03-28T00:16:32.235Z,12.23
2023-03-28T00:19:00.972Z,12.27
2023-03-28T00:21:30.866Z,12.30
2023-03-28T00:24:01.920Z,12.30
2023-03-28T00:26:34.339Z,14.32
2023-03-28T00:29:02.905Z,12.95
2023-03-28T00:31:30.810Z,12.70
2023-03-28T00:33:57.522Z,11.88
2023-03-28T00:36:29.211Z,12.13
2023-03-28T00:38:58.088Z,10.95
2023-03-28T00:41:26.889Z,11.25
2023-03-28T00:43:55.132Z,11.65
2023-03-28T00:46:24.751Z,11.43
2023-03-28T00:49:13.175Z,11.32
2023-03-28T00:51:47.588Z,12.00
2023-03-28T00:54:18.720Z,11.50
2023-03-28T00:56:52.004Z,10.95
2023-03-28T00:59:21.230Z,11.15
2023-03-28T01:01:47.814Z,11.63
2023-03-28T01:04:20.316Z,10.90
2023-03-28T01:06:51.550Z,11.00
2023-03-28T01:09:19.016Z,10.80
2023-03-28T01:11:46.290Z,11.80
2023-03-28T01:14:17.774Z,11.63
2023-03-28T01:16:47.698Z,11.10
2023-03-28T01:19:42.788Z,11.05
2023-03-28T01:22:12.921Z,11.30
2023-03-28T01:25:24.625Z,10.27
2023-03-28T01:28:35.748Z,11.80
2023-03-28T01:31:33.328Z,11.27
2023-03-28T01:34:37.372Z,10.70
2023-03-28T01:37:16.684Z,11.27
2023-03-28T01:40:01.177Z,10.43
2023-03-28T01:43:00.283Z,10.70
2023-03-28T01:45:44.997Z,10.98
2023-03-28T01:48:22.136Z,11.77
2023-03-28T01:50:56.333Z,10.32
2023-03-28T01:53:43.444Z,10.95
2023-03-28T01:56:45.481Z,10.27
2023-03-28T01:59:30.820Z,11.05
2023-03-28T02:01:57.240Z,11.60
2023-03-28T02:04:26.029Z,12.15
2023-03-28T02:06:54.138Z,11.05
2023-03-28T02:09:24.971Z,11.82
2023-03-28T02:11:59.737Z,11.48
2023-03-28T02:14:32.553Z,11.60
2023-03-28T02:17:04.806Z,12.00
2023-03-28T02:19:36.010Z,11.55
2023-03-28T02:22:31.504Z,11.68
2023-03-28T02:24:58.301Z,11.98
2023-03-28T02:27:24.844Z,11.85
2023-03-28T02:29:54.369Z,11.90
2023-03-28T02:32:21.934Z,11.45
2023-03-28T02:34:51.636Z,12.07
2023-03-28T02:37:43.250Z,12.07
2023-03-28T02:40:34.184Z,12.18
2023-03-28T02:43:39.257Z,12.57
2023-03-28T02:46:26.783Z,11.50
2023-03-28T02:49:22.237Z,11.57
2023-03-28T02:52:09.503Z,12.68
2023-03-28T02:55:00.195Z,12.05
2023-03-28T02:57:31.475Z,11.70
2023-03-28T03:00:12.611Z,11.93
2023-03-28T03:02:44.256Z,11.15
2023-03-28T03:05:11.712Z,11.10
2023-03-28T03:07:38.724Z,11.05
2023-03-28T03:10:11.334Z,11.75
2023-03-28T03:12:38.056Z,11.23
2023-03-28T03:15:05.626Z,11.00
2023-03-28T03:17:32.481Z,10.80
2023-03-28T03:19:59.355Z,11.45
2023-03-28T03:22:25.906Z,11.55
2023-03-28T03:24:52.358Z,11.30
2023-03-28T03:27:19.756Z,11.48
2023-03-28T03:29:46.549Z,11.73
2023-03-28T03:32:12.982Z,11.05
2023-03-28T03:34:41.323Z,11.68
2023-03-28T03:37:09.529Z,10.73
2023-03-28T03:39:38.900Z,11.70
2023-03-28T03:42:05.636Z,10.68
2023-03-28T03:44:32.312Z,11.90
2023-03-28T03:46:58.849Z,11.15
2023-03-28T03:49:25.425Z,11.70
2023-03-28T03:51:52.155Z,11.52
2023-03-28T03:54:18.866Z,11.25
2023-03-28T03:56:45.950Z,10.70
2023-03-28T03:59:12.690Z,11.20
2023-03-28T04:01:39.945Z,11.10
2023-03-28T04:04:07.788Z,12.23
2023-03-28T04:06:34.554Z,11.82
2023-03-28T04:09:03.041Z,11.48
2023-03-28T04:11:29.556Z,11.80
2023-03-28T04:13:56.006Z,11.45
2023-03-28T04:16:23.946Z,11.93
2023-03-28T04:18:53.254Z,11.98
2023-03-28T04:21:27.598Z,12.87
2023-03-28T04:23:55.255Z,11.98
2023-03-28T04:26:25.822Z,12.15
2023-03-28T04:28:53.361Z,12.50
2023-03-28T04:31:21.818Z,12.73
2023-03-28T04:33:49.288Z,12.27
2023-03-28T04:36:16.880Z,11.40
2023-03-28T04:38:45.816Z,12.20
2023-03-28T04:41:16.926Z,13.25
2023-03-28T04:43:44.308Z,12.13
2023-03-28T04:46:11.152Z,11.88
2023-03-28T04:48:37.709Z,13.05
2023-03-28T04:51:04.426Z,13.50
2023-03-28T04:53:30.909Z,14.13
2023-03-28T04:55:57.477Z,15.15
2023-03-28T04:58:24.101Z,15.40
2023-03-28T05:00:51.006Z,15.18
2023-03-28T05:03:20.363Z,14.30
2023-03-28T05:05:48.842Z,15.00
2023-03-28T05:08:17.505Z,14.35
2023-03-28T05:10:47.325Z,14.27
2023-03-28T05:13:13.808Z,14.50
2023-03-28T05:15:40.412Z,18.80
2023-03-28T05:18:06.970Z,18.65
2023-03-28T05:20:34.436Z,17.65
2023-03-28T05:23:02.407Z,15.93
2023-03-28T05:25:29.563Z,16.50
2023-03-28T05:27:56.221Z,15.25
2023-03-28T05:30:22.838Z,14.23
2023-03-28T05:32:49.667Z,14.95
2023-03-28T05:35:16.802Z,13.63
2023-03-28T05:37:46.793Z,14.68
2023-03-28T05:40:22.499Z,13.77
2023-03-28T05:42:48.983Z,12.88
2023-03-28T05:45:15.700Z,14.70
2023-03-28T05:47:42.187Z,13.85
2023-03-28T05:50:10.826Z,14.05
2023-03-28T05:52:37.868Z,14.82
2023-03-28T05:55:05.678Z,14.02
2023-03-28T05:57:32.549Z,14.45
2023-03-28T05:59:59.304Z,14.25
2023-03-28T06:02:26.365Z,15.13
2023-03-28T06:04:54.660Z,15.25
2023-03-28T06:07:35.132Z,14.95
2023-03-28T06:10:07.066Z,15.23
2023-03-28T06:12:33.743Z,14.00
2023-03-28T06:15:00.428Z,15.40
2023-03-28T06:17:27.094Z,15.55
2023-03-28T06:19:53.658Z,15.90
2023-03-28T06:22:20.496Z,15.25
2023-03-28T06:24:47.063Z,15.27
2023-03-28T06:27:13.574Z,18.05
2023-03-28T06:29:40.056Z,19.20
2023-03-28T06:32:06.937Z,19.58
2023-03-28T06:34:33.602Z,19.88
2023-03-28T06:37:01.793Z,19.30
2023-03-28T06:39:28.429Z,19.85
2023-03-28T06:41:54.876Z,20.55
2023-03-28T06:44:21.449Z,20.52
2023-03-28T06:46:47.968Z,20.42
2023-03-28T06:49:14.681Z,20.67
2023-03-28T06:51:41.250Z,19.35
2023-03-28T06:54:07.825Z,19.55
2023-03-28T06:56:34.387Z,18.50
2023-03-28T06:59:00.906Z,18.13
2023-03-28T07:01:27.461Z,15.68
2023-03-28T07:03:54.684Z,14.02
2023-03-28T07:06:21.411Z,14.18
2023-03-28T07:08:47.943Z,13.52
2023-03-28T07:11:14.474Z,14.57
2023-03-28T07:13:41.158Z,13.55
2023-03-28T07:16:11.486Z,14.40
2023-03-28T07:18:38.698Z,13.10
2023-03-28T07:21:07.414Z,12.88
2023-03-28T07:23:34.028Z,13.60
2023-03-28T07:26:00.551Z,13.48
2023-03-28T07:28:27.921Z,12.93
2023-03-28T07:30:54.634Z,13.63
2023-03-28T07:33:30.873Z,13.77
2023-03-28T07:36:14.664Z,11.88
2023-03-28T07:38:41.409Z,12.90
2023-03-28T07:41:08.116Z,12.57
2023-03-28T07:43:35.015Z,13.20
2023-03-28T07:46:08.059Z,12.05
2023-03-28T07:48:36.351Z,12.65
2023-03-28T07:51:04.331Z,12.20
2023-03-28T07:53:30.809Z,12.55
2023-03-28T07:55:57.457Z,12.23
2023-03-28T07:58:24.335Z,13.18
2023-03-28T08:00:51.013Z,12.85
2023-03-28T08:03:23.771Z,12.23
2023-03-28T08:05:53.802Z,12.02
2023-03-28T08:08:21.746Z,12.38
2023-03-28T08:10:51.621Z,12.45
2023-03-28T08:13:20.895Z,13.63
2023-03-28T08:15:55.276Z,12.00
2023-03-28T08:18:24.661Z,12.20
2023-03-28T08:20:57.149Z,11.40
2023-03-28T08:23:23.862Z,12.40
2023-03-28T08:25:51.218Z,11.73
2023-03-28T08:28:22.136Z,12.38
2023-03-28T08:30:48.690Z,12.45
2023-03-28T08:33:15.632Z,12.20
2023-03-28T08:35:42.325Z,12.25
2023-03-28T08:38:11.189Z,12.55
2023-03-28T08:40:43.463Z,12.27
2023-03-28T08:43:31.327Z,12.18
2023-03-28T08:45:59.918Z,12.40
2023-03-28T08:48:34.214Z,11.15
2023-03-28T08:51:06.935Z,11.57
2023-03-28T08:53:43.654Z,11.52
2023-03-28T08:56:15.539Z,12.68
2023-03-28T08:59:04.804Z,11.38
2023-03-28T09:01:32.888Z,11.57
2023-03-28T09:04:01.185Z,12.75
2023-03-28T09:06:29.384Z,13.00
2023-03-28T09:09:17.607Z,13.85
2023-03-28T09:11:47.377Z,14.32
2023-03-28T09:14:40.953Z,13.80
2023-03-28T09:17:22.185Z,13.80
2023-03-28T09:20:24.043Z,12.63
2023-03-28T09:23:12.390Z,11.00
2023-03-28T09:26:01.788Z,11.70
2023-03-28T09:28:48.206Z,11.07
2023-03-28T09:31:17.480Z,10.93
2023-03-28T09:33:47.159Z,10.60
2023-03-28T09:36:23.271Z,13.10
2023-03-28T09:38:54.930Z,13.30
2023-03-28T09:41:29.805Z,12.88
2023-03-28T09:44:00.945Z,11.55
2023-03-28T09:46:38.478Z,12.05
2023-03-28T09:49:05.207Z,10.70
2023-03-28T09:51:31.922Z,10.57
2023-03-28T09:53:58.503Z,10.50
2023-03-28T09:56:30.008Z,10.85
2023-03-28T09:58:59.459Z,10.40
2023-03-28T10:01:46.149Z,10.77
2023-03-28T10:04:31.432Z,10.77
2023-03-28T10:07:10.092Z,10.98
2023-03-28T10:09:54.817Z,10.95
2023-03-28T10:12:38.254Z,10.73
2023-03-28T10:15:07.930Z,11.15
2023-03-28T10:17:37.378Z,10.90
2023-03-28T10:20:15.361Z,10.82
2023-03-28T10:22:42.793Z,12.00
2023-03-28T10:25:17.510Z,11.15
2023-03-28T10:27:44.585Z,12.23
2023-03-28T10:30:13.990Z,11.02
2023-03-28T10:32:41.364Z,11.10
2023-03-28T10:35:31.059Z,10.98
2023-03-28T10:38:03.577Z,12.70
2023-03-28T10:40:31.734Z,11.57
2023-03-28T10:42:59.264Z,11.10
2023-03-28T10:45:39.562Z,10.93
2023-03-28T10:51:04.019Z,12.52
2023-03-28T10:54:04.666Z,11.30
2023-03-28T10:56:38.551Z,10.98
2023-03-28T10:59:40.331Z,11.13
2023-03-28T11:02:26.268Z,10.73
2023-03-28T11:05:28.678Z,13.02
2023-03-28T11:08:19.447Z,12.95
2023-03-28T11:11:01.009Z,11.07
2023-03-28T11:14:00.320Z,10.73
2023-03-28T11:16:42.295Z,11.20
2023-03-28T11:19:17.627Z,11.80
2023-03-28T11:22:05.516Z,10.40
2023-03-28T11:25:22.754Z,12.70
2023-03-28T11:28:15.546Z,12.43
2023-03-28T11:30:47.312Z,11.00
2023-03-28T11:33:32.441Z,10.70
2023-03-28T11:36:05.467Z,11.27
2023-03-28T11:38:32.462Z,10.50
2023-03-28T11:41:04.413Z,11.02
2023-03-28T11:43:41.815Z,11.20
2023-03-28T11:46:16.674Z,10.52
2023-03-28T11:48:55.058Z,10.30
2023-03-28T11:51:35.310Z,10.90
2023-03-28T11:56:53.439Z,10.43
2023-03-28T11:59:42.801Z,10.60
2023-03-28T12:02:27.718Z,11.63
2023-03-28T12:05:02.479Z,11.00
2023-03-28T12:07:38.569Z,11.25
2023-03-28T12:10:41.330Z,10.90
2023-03-28T12:13:34.708Z,11.57
2023-03-28T12:16:08.968Z,11.85
2023-03-28T12:18:52.333Z,12.70
2023-03-28T12:21:18.810Z,14.00
2023-03-28T12:24:13.684Z,13.55
2023-03-28T12:27:04.573Z,16.02
2023-03-28T12:29:36.186Z,18.48
2023-03-28T12:32:25.006Z,18.17
2023-03-28T12:34:59.577Z,17.52
2023-03-28T12:37:54.335Z,16.48
2023-03-28T12:40:29.313Z,15.23
2023-03-28T12:42:58.092Z,14.18
2023-03-28T12:45:40.583Z,15.20
2023-03-28T12:48:13.416Z,13.48
2023-03-28T12:50:52.444Z,13.75
2023-03-28T12:53:21.733Z,14.32
2023-03-28T12:55:49.926Z,14.27
2023-03-28T12:58:21.324Z,14.43
2023-03-28T13:01:17.052Z,14.75
2023-03-28T13:03:51.904Z,14.60
2023-03-28T13:06:28.433Z,13.57
2023-03-28T13:08:55.347Z,13.80
2023-03-28T13:11:29.572Z,13.95
2023-03-28T13:14:01.897Z,13.18
2023-03-28T13:16:45.780Z,13.25
2023-03-28T13:19:16.404Z,12.90
2023-03-28T13:22:00.482Z,12.35
2023-03-28T13:24:33.530Z,12.88
2023-03-28T13:27:15.799Z,12.43
2023-03-28T13:29:47.596Z,12.32
2023-03-28T13:32:23.066Z,12.32
2023-03-28T13:34:57.723Z,11.75
2023-03-28T13:37:26.707Z,11.70
2023-03-28T13:39:59.256Z,12.85
2023-03-28T13:42:28.712Z,11.65
2023-03-28T13:45:00.525Z,12.10
2023-03-28T13:47:35.038Z,12.57
2023-03-28T13:50:14.551Z,12.05
2023-03-28T13:52:41.214Z,12.52
2023-03-28T13:55:34.540Z,13.02
2023-03-28T13:58:01.731Z,12.50
2023-03-28T14:00:29.096Z,11.45
2023-03-28T14:03:12.978Z,11.68
2023-03-28T14:05:45.582Z,13.13
2023-03-28T14:08:15.239Z,11.45
2023-03-28T14:10:43.722Z,12.10
2023-03-28T14:13:16.557Z,12.05
2023-03-28T14:15:44.516Z,12.05
2023-03-28T14:18:17.527Z,12.82
2023-03-28T14:20:46.793Z,12.25
2023-03-28T14:23:35.966Z,12.07
2023-03-28T14:26:07.222Z,12.15
2023-03-28T14:28:34.118Z,11.38
2023-03-28T14:31:01.096Z,12.15
2023-03-28T14:33:34.168Z,11.70
2023-03-28T14:36:03.906Z,14.18
2023-03-28T14:38:39.462Z,12.93
2023-03-28T14:41:07.828Z,13.45
2023-03-28T14:43:34.960Z,12.68
2023-03-28T14:46:06.112Z,12.93
2023-03-28T14:48:34.125Z,12.75
2023-03-28T14:51:03.812Z,12.43
2023-03-28T14:53:37.097Z,13.82
2023-03-28T14:56:10.392Z,16.55
2023-03-28T14:58:43.616Z,14.10
2023-03-28T15:01:13.438Z,12.32
2023-03-28T15:03:46.796Z,12.23
2023-03-28T15:06:16.545Z,11.82
2023-03-28T15:08:44.993Z,12.05
2023-03-28T15:11:16.886Z,11.70
2023-03-28T15:13:47.647Z,11.50
2023-03-28T15:16:24.356Z,11.80
2023-03-28T15:19:07.058Z,11.52
2023-03-28T15:21:39.164Z,12.40
2023-03-28T15:24:10.282Z,11.77
2023-03-28T15:26:41.969Z,12.48
2023-03-28T15:29:09.532Z,11.90
2023-03-28T15:31:40.636Z,12.10
2023-03-28T15:34:12.670Z,12.02
2023-03-28T15:36:48.706Z,11.85
2023-03-28T15:39:22.847Z,11.95
2023-03-28T15:42:21.421Z,15.60
2023-03-28T15:44:57.099Z,26.20
2023-03-28T15:47:27.363Z,13.65
2023-03-28T15:52:29.685Z,12.18
2023-03-28T15:54:58.051Z,11.88
2023-03-28T15:57:29.666Z,11.40
2023-03-28T15:59:58.022Z,11.45
2023-03-28T16:02:24.507Z,10.52
2023-03-28T16:05:09.426Z,10.57
2023-03-28T16:07:47.932Z,10.90
2023-03-28T16:10:19.289Z,10.60
2023-03-28T16:12:46.877Z,10.70
2023-03-28T16:15:13.767Z,11.15
2023-03-28T16:17:44.950Z,10.80
2023-03-28T16:20:21.999Z,10.63
2023-03-28T16:22:49.096Z,20.30
2023-03-28T16:25:15.837Z,32.72
2023-03-28T16:27:42.865Z,16.45
2023-03-28T16:30:28.616Z,11.20
2023-03-28T16:32:55.823Z,12.88
2023-03-28T16:35:22.788Z,12.02
2023-03-28T16:37:49.311Z,15.52
2023-03-28T16:40:16.034Z,18.52
2023-03-28T16:42:42.712Z,12.52
2023-03-28T16:45:12.973Z,11.35
2023-03-28T16:47:40.631Z,11.82
2023-03-28T16:50:08.724Z,11.32
2023-03-28T16:52:38.962Z,11.68
2023-03-28T16:55:07.694Z,11.55
2023-03-28T16:57:34.119Z,13.35
2023-03-28T17:00:00.791Z,13.43
2023-03-28T17:02:27.296Z,13.35
2023-03-28T17:04:53.925Z,12.75
2023-03-28T17:07:21.081Z,16.98
2023-03-28T17:09:48.451Z,13.02
2023-03-28T17:12:14.856Z,12.50
2023-03-28T17:14:41.428Z,11.68
2023-03-28T17:17:08.391Z,13.15
2023-03-28T17:19:34.916Z,12.23
2023-03-28T17:22:10.382Z,11.05
2023-03-28T17:24:36.869Z,11.77
2023-03-28T17:27:03.490Z,12.60
2023-03-28T17:29:30.790Z,12.63
2023-03-28T17:31:57.394Z,12.52
2023-03-28T17:34:24.159Z,12.45
2023-03-28T17:36:51.496Z,11.60
2023-03-28T17:39:17.901Z,13.38
2023-03-28T17:41:44.478Z,12.55
2023-03-28T17:44:10.907Z,11.88
2023-03-28T17:46:37.680Z,12.38
2023-03-28T17:49:04.481Z,12.85
2023-03-28T17:51:31.178Z,12.35
2023-03-28T17:53:58.514Z,12.38
2023-03-28T17:56:25.612Z,12.70
2023-03-28T17:58:52.451Z,13.02
2023-03-28T18:01:19.618Z,14.07
2023-03-28T18:03:46.657Z,13.02
2023-03-28T18:06:13.879Z,12.60
2023-03-28T18:08:40.521Z,11.82
2023-03-28T18:11:09.855Z,11.98
2023-03-28T18:13:38.179Z,12.07
2023-03-28T18:16:10.449Z,12.65
2023-03-28T18:18:38.305Z,13.00
2023-03-28T18:21:05.390Z,12.38
2023-03-28T18:23:31.868Z,13.13
2023-03-28T18:25:58.717Z,13.05
2023-03-28T18:28:25.874Z,16.52
2023-03-28T18:30:53.379Z,13.13
2023-03-28T18:33:22.088Z,13.27
2023-03-28T18:35:49.434Z,12.80
2023-03-28T18:38:15.954Z,13.13
2023-03-28T18:40:42.498Z,12.13
2023-03-28T18:43:09.617Z,12.27
2023-03-28T18:45:36.720Z,16.02
2023-03-28T18:48:04.447Z,15.02
2023-03-28T18:50:31.561Z,14.30
2023-03-28T18:52:58.282Z,13.35
2023-03-28T18:55:24.810Z,12.65
2023-03-28T18:57:52.593Z,12.40
2023-03-28T19:00:19.965Z,12.52
2023-03-28T19:02:47.916Z,11.38
2023-03-28T19:05:17.871Z,11.85
2023-03-28T19:07:45.267Z,12.55
2023-03-28T19:10:13.359Z,13.07
2023-03-28T19:12:41.061Z,12.85
2023-03-28T19:15:10.502Z,12.50
2023-03-28T19:17:38.431Z,11.87
2023-03-28T19:20:07.477Z,11.63
2023-03-28T19:22:35.129Z,11.07
2023-03-28T19:25:01.812Z,11.52
2023-03-28T19:27:28.352Z,11.10
2023-03-28T19:29:55.229Z,11.48
2023-03-28T19:32:21.687Z,11.48
2023-03-28T19:34:48.275Z,11.90
2023-03-28T19:37:14.771Z,11.57
2023-03-28T19:39:41.221Z,11.73
2023-03-28T19:42:07.855Z,11.82
2023-03-28T19:44:34.337Z,12.27
2023-03-28T19:47:00.935Z,11.43
2023-03-28T19:49:27.397Z,11.60
2023-03-28T19:51:54.516Z,11.60
2023-03-28T19:54:21.609Z,12.88
2023-03-28T19:56:48.627Z,11.90
2023-03-28T19:59:15.157Z,11.50
2023-03-28T20:01:41.651Z,11.85
2023-03-28T20:04:08.350Z,11.30
2023-03-28T20:06:34.936Z,11.82
2023-03-28T20:09:01.618Z,10.90
2023-03-28T20:11:28.946Z,11.32
2023-03-28T20:13:55.636Z,11.73
2023-03-28T20:16:22.186Z,12.20
2023-03-28T20:18:48.842Z,12.88
2023-03-28T20:21:15.354Z,11.80
2023-03-28T20:23:42.475Z,11.63
2023-03-28T20:26:20.064Z,11.93
2023-03-28T20:28:50.378Z,11.15
2023-03-28T20:31:18.222Z,11.23
2023-03-28T20:33:45.361Z,11.80
2023-03-28T20:36:12.159Z,11.15
2023-03-28T20:38:38.687Z,11.32
2023-03-28T20:41:10.840Z,11.13
2023-03-28T20:43:40.589Z,10.93
2023-03-28T20:46:09.573Z,10.77
2023-03-28T20:48:36.828Z,11.30
2023-03-28T20:51:13.950Z,10.80
2023-03-28T20:53:49.423Z,11.02
2023-03-28T20:56:17.546Z,12.50
2023-03-28T20:58:44.178Z,11.55
2023-03-28T21:01:12.882Z,11.73
2023-03-28T21:03:50.969Z,11.20
2023-03-28T21:06:23.303Z,11.27
2023-03-28T21:08:51.774Z,11.10
2023-03-28T21:11:22.192Z,11.25
2023-03-28T21:13:49.592Z,11.82
2023-03-28T21:16:17.236Z,11.77
2023-03-28T21:18:44.579Z,11.80
2023-03-28T21:21:13.346Z,11.50
2023-03-28T21:23:41.072Z,11.05
2023-03-28T21:26:11.159Z,11.38
2023-03-28T21:28:38.407Z,11.25
2023-03-28T21:31:10.798Z,11.60
2023-03-28T21:33:38.518Z,11.68
2023-03-28T21:36:07.371Z,11.98
2023-03-28T21:38:34.751Z,11.70
2023-03-28T21:41:03.867Z,12.10
2023-03-28T21:43:30.572Z,11.97
2023-03-28T21:45:57.330Z,11.63
2023-03-28T21:48:23.865Z,11.15
2023-03-28T21:50:53.663Z,10.85
2023-03-28T21:53:21.605Z,11.93
2023-03-28T21:55:48.809Z,11.10
2023-03-28T21:58:15.597Z,11.65
2023-03-28T22:00:42.195Z,12.43
2023-03-28T22:03:08.938Z,11.85
2023-03-28T22:05:42.889Z,11.60
2023-03-28T22:08:12.400Z,11.57
2023-03-28T22:10:48.298Z,12.43
2023-03-28T22:13:14.875Z,12.55
2023-03-28T22:15:42.082Z,13.40
2023-03-28T22:18:09.303Z,13.05
2023-03-28T22:20:38.211Z,15.35
2023-03-28T22:23:05.576Z,13.10
2023-03-28T22:25:35.773Z,12.98
2023-03-28T22:30:31.710Z,13.13
2023-03-28T22:32:58.299Z,14.23
2023-03-28T22:35:25.277Z,13.70
2023-03-28T22:37:52.057Z,15.70
2023-03-28T22:40:18.927Z,15.70
2023-03-28T22:42:45.508Z,18.08
2023-03-28T22:45:12.044Z,21.92
2023-03-28T22:47:42.044Z,23.80
2023-03-28T22:50:11.346Z,25.05
2023-03-28T22:52:38.871Z,24.77
2023-03-28T22:55:06.285Z,26.50
2023-03-28T22:57:33.008Z,26.42
2023-03-28T23:00:00.092Z,25.63
2023-03-28T23:02:27.074Z,25.85
2023-03-28T23:04:54.287Z,26.55
2023-03-28T23:07:20.876Z,24.75
2023-03-28T23:09:47.875Z,23.70
2023-03-28T23:12:14.340Z,24.25
2023-03-28T23:14:41.242Z,22.90
2023-03-28T23:17:09.829Z,20.55
2023-03-28T23:19:36.963Z,21.15
2023-03-28T23:22:04.229Z,21.88
2023-03-28T23:24:30.643Z,21.15
2023-03-28T23:26:57.209Z,21.38
2023-03-28T23:29:24.560Z,22.90
2023-03-28T23:31:51.074Z,22.45
2023-03-28T23:34:20.624Z,21.27
2023-03-28T23:36:47.280Z,19.80
2023-03-28T23:39:14.476Z,18.63
2023-03-28T23:41:41.371Z,18.73
2023-03-28T23:44:08.341Z,18.40
2023-03-28T23:46:35.667Z,18.13
2023-03-28T23:49:02.526Z,18.15
2023-03-28T23:51:29.273Z,18.50
2023-03-28T23:53:56.258Z,17.50
2023-03-28T23:56:23.894Z,16.83
2023-03-28T23:58:50.721Z,17.80
